Time;durP1;ratioP1;P1;durP2;ratioP2;P2;SDS_P1;SDS_P2;PMS_P1;PMS_P2;Temp;Humidity;BMP_temperature;BMP_pressure;BME280_temperature;BME280_humidity;BME280_pressure;Samples;Min_cycle;Max_cycle;Signal;HPM_P1;HPM_P2
2022/03/02 00:01:17;;;;;;;;;;;;;;;6.34;100.00;100009.00;5076265;28;19932;-79
2022/03/02 00:03:44;;;;;;;;;;;;;;;6.50;100.00;100017.97;5092018;28;20296;-79
2022/03/02 00:06:12;;;;;;;;;;;;;;;6.25;100.00;100005.69;5091830;28;19925;-79
2022/03/02 00:08:39;;;;;;;;;;;;;;;6.15;100.00;100006.34;5068469;28;20319;-79
2022/03/02 00:11:06;;;;;;;;;;;;;;;6.42;100.00;100010.75;5057514;28;19928;-80
2022/03/02 00:13:34;;;;;;;;;;;;;;;6.46;100.00;99994.94;5056116;28;20422;-80
2022/03/02 00:16:01;;;;;;;;;;;;;;;6.45;100.00;100002.44;5085101;28;19925;-79
2022/03/02 00:18:28;;;;;;;;;;;;;;;6.40;100.00;99996.41;5074842;28;19948;-79
2022/03/02 00:20:55;;;;;;;;;;;;;;;6.38;100.00;100002.34;5074603;28;19979;-79
2022/03/02 00:23:22;;;;;;;;;;;;;;;6.16;100.00;99986.53;5075935;28;19931;-79
2022/03/02 00:25:49;;;;;;;;;;;;;;;6.34;100.00;99997.91;5074784;28;19932;-79
2022/03/02 00:28:18;;;;;;;;;;;;;;;6.40;100.00;99985.31;5060296;28;19971;-80
2022/03/02 00:30:45;;;;;;;;;;;;;;;6.21;100.00;99985.44;5054392;28;20368;-80
2022/03/02 00:33:13;;;;;;;;;;;;;;;6.32;100.00;99989.97;5054582;28;19925;-79
2022/03/02 00:35:40;;;;;;;;;;;;;;;6.20;100.00;99983.81;5037860;28;19972;-79
2022/03/02 00:38:10;;;;;;;;;;;;;;;6.09;100.00;99991.19;5054132;28;19932;-79
2022/03/02 00:40:39;;;;;;;;;;;;;;;6.20;100.00;99984.63;5054583;28;20042;-79
2022/03/02 00:43:07;;;;;;;;;;;;;;;6.17;100.00;99984.56;5055643;28;20012;-79
2022/03/02 00:45:34;;;;;;;;;;;;;;;6.02;100.00;99969.66;5055536;28;19931;-80
2022/03/02 00:48:02;;;;;;;;;;;;;;;6.23;100.00;99969.19;5054297;28;19925;-79
2022/03/02 00:50:29;;;;;;;;;;;;;;;6.34;100.00;99976.53;5021054;28;20396;-79
2022/03/02 00:52:56;;;;;;;;;;;;;;;6.31;100.00;99966.16;5055481;28;19925;-79
2022/03/02 00:55:24;;;;;;;;;;;;;;;6.21;100.00;99960.44;5054071;28;19936;-79
2022/03/02 00:57:51;;;;;;;;;;;;;;;6.18;100.00;99967.53;5055286;28;20024;-79
2022/03/02 01:00:18;;;;;;;;;;;;;;;6.19;100.00;99968.34;5053921;28;19971;-79
2022/03/02 01:02:48;;;;;;;;;;;;;;;6.17;100.00;99970.66;5037296;28;19971;-79
2022/03/02 01:05:16;;;;;;;;;;;;;;;6.34;100.00;99970.97;5073175;28;19982;-80
2022/03/02 01:07:43;;;;;;;;;;;;;;;6.43;100.00;99974.28;5073774;28;19929;-79
2022/03/02 01:10:11;;;;;;;;;;;;;;;6.25;100.00;99972.41;5074983;28;20391;-79
2022/03/02 01:12:39;;;;;;;;;;;;;;;6.23;100.00;99969.19;5057267;28;19971;-79
2022/03/02 01:15:07;;;;;;;;;;;;;;;6.23;100.00;99961.66;5073704;28;19924;-79
2022/03/02 01:17:34;;;;;;;;;;;;;;;6.29;100.00;99973.25;5074702;28;19925;-78
2022/03/02 01:20:03;;;;;;;;;;;;;;;6.36;100.00;99953.94;5073401;28;19931;-78
2022/03/02 01:22:30;;;;;;;;;;;;;;;6.37;100.00;99941.66;5073181;28;19924;-79
2022/03/02 01:24:57;;;;;;;;;;;;;;;6.34;100.00;99936.84;5074287;28;19925;-80
2022/03/02 01:27:24;;;;;;;;;;;;;;;6.25;100.00;99930.75;5073507;28;20022;-78
2022/03/02 01:29:51;;;;;;;;;;;;;;;6.23;100.00;99919.22;5056330;28;19971;-78
2022/03/02 01:32:18;;;;;;;;;;;;;;;6.23;100.00;99913.69;5072828;28;19971;-79
2022/03/02 01:34:45;;;;;;;;;;;;;;;6.10;100.00;99909.53;5073232;28;19925;-79
2022/03/02 01:37:13;;;;;;;;;;;;;;;6.18;100.00;99911.25;5073485;28;20299;-79
2022/03/02 01:39:41;;;;;;;;;;;;;;;6.17;100.00;99901.31;5074568;28;19925;-78
2022/03/02 01:42:08;;;;;;;;;;;;;;;6.24;100.00;99904.97;5056425;28;20334;-79
2022/03/02 01:44:36;;;;;;;;;;;;;;;6.36;100.00;99896.44;5056736;28;20318;-79
2022/03/02 01:47:04;;;;;;;;;;;;;;;6.26;100.00;99883.22;5089921;28;20271;-79
2022/03/02 01:49:32;;;;;;;;;;;;;;;6.34;100.00;99881.34;5072966;28;19924;-79
2022/03/02 01:51:59;;;;;;;;;;;;;;;6.50;100.00;99881.94;5055763;28;19925;-79
2022/03/02 01:54:26;;;;;;;;;;;;;;;6.04;100.00;99886.06;5073001;28;19924;-78
2022/03/02 01:56:54;;;;;;;;;;;;;;;6.05;100.00;99880.13;5072958;28;19928;-79
2022/03/02 01:59:21;;;;;;;;;;;;;;;6.24;100.00;99868.13;5056278;28;20007;-79
2022/03/02 02:01:48;;;;;;;;;;;;;;;6.21;100.00;99866.09;5072903;28;19931;-79
2022/03/02 02:04:16;;;;;;;;;;;;;;;6.02;100.00;99871.75;5064204;28;19968;-79
2022/03/02 02:06:43;;;;;;;;;;;;;;;6.13;100.00;99870.75;5053934;28;19924;-78
2022/03/02 02:09:10;;;;;;;;;;;;;;;5.90;100.00;99863.63;5054055;28;20047;-78
2022/03/02 02:11:38;;;;;;;;;;;;;;;6.00;100.00;99851.91;5036037;28;19925;-78
2022/03/02 02:14:05;;;;;;;;;;;;;;;6.02;100.00;99844.00;5036123;28;20343;-79
2022/03/02 02:16:32;;;;;;;;;;;;;;;6.07;100.00;99850.03;5052580;28;20019;-79
2022/03/02 02:18:59;;;;;;;;;;;;;;;5.82;100.00;99837.78;5036077;28;20308;-79
2022/03/02 02:21:27;;;;;;;;;;;;;;;6.07;100.00;99843.69;5052632;28;20031;-78
2022/03/02 02:23:55;;;;;;;;;;;;;;;5.95;100.00;99841.13;5052706;28;20372;-79
2022/03/02 02:26:22;;;;;;;;;;;;;;;6.33;100.00;99844.44;5052639;28;19925;-78
2022/03/02 02:28:50;;;;;;;;;;;;;;;5.90;100.00;99835.91;5036086;28;20324;-79
2022/03/02 02:31:17;;;;;;;;;;;;;;;6.07;100.00;99846.47;5052675;28;19925;-79
2022/03/02 02:33:44;;;;;;;;;;;;;;;5.96;100.00;99832.44;5036083;28;20019;-79
2022/03/02 02:36:12;;;;;;;;;;;;;;;6.03;100.00;99826.19;5052610;28;19994;-78
2022/03/02 02:38:39;;;;;;;;;;;;;;;6.15;100.00;99826.75;5052444;28;19947;-79
2022/03/02 02:41:06;;;;;;;;;;;;;;;6.17;100.00;99827.19;5052463;28;19924;-79
2022/03/02 02:43:33;;;;;;;;;;;;;;;5.99;100.00;99815.03;5052360;28;19960;-78
2022/03/02 02:46:00;;;;;;;;;;;;;;;6.09;100.00;99808.06;5052627;28;20019;-78
2022/03/02 02:48:27;;;;;;;;;;;;;;;5.89;100.00;99809.34;5019787;28;19932;-78
2022/03/02 02:50:54;;;;;;;;;;;;;;;6.07;100.00;99807.63;5035728;28;19935;-79
2022/03/02 02:53:21;;;;;;;;;;;;;;;6.12;100.00;99810.06;5035743;28;19975;-79
2022/03/02 02:55:50;;;;;;;;;;;;;;;6.02;100.00;99802.38;5052327;28;19960;-78
2022/03/02 02:58:17;;;;;;;;;;;;;;;6.08;100.00;99806.44;5053400;28;20034;-79
2022/03/02 03:00:45;;;;;;;;;;;;;;;6.01;100.00;99796.06;5053774;28;19929;-78
2022/03/02 03:03:13;;;;;;;;;;;;;;;6.15;100.00;99806.53;5055692;28;19947;-79
2022/03/02 03:05:40;;;;;;;;;;;;;;;6.23;100.00;99794.34;5056284;28;19929;-79
2022/03/02 03:08:11;;;;;;;;;;;;;;;6.01;100.00;99800.81;5056303;28;19924;-79
2022/03/02 03:10:39;;;;;;;;;;;;;;;6.08;100.00;99784.25;5057474;28;19925;-78
2022/03/02 03:13:06;;;;;;;;;;;;;;;6.29;100.00;99784.50;5055912;28;20459;-78
2022/03/02 03:15:34;;;;;;;;;;;;;;;6.26;100.00;99776.94;5056213;28;19975;-79
2022/03/02 03:18:01;;;;;;;;;;;;;;;6.28;100.00;99775.41;5057320;28;19983;-79
2022/03/02 03:20:29;;;;;;;;;;;;;;;6.52;100.00;99771.31;5057148;28;19929;-78
2022/03/02 03:22:57;;;;;;;;;;;;;;;6.34;100.00;99764.75;5056095;28;19924;-78
2022/03/02 03:25:25;;;;;;;;;;;;;;;6.34;100.00;99761.97;5056227;28;19925;-78
2022/03/02 03:27:52;;;;;;;;;;;;;;;6.36;100.00;99756.84;5057159;28;20390;-79
2022/03/02 03:30:21;;;;;;;;;;;;;;;6.34;100.00;99764.75;5055962;28;20379;-79
2022/03/02 03:32:49;;;;;;;;;;;;;;;6.46;100.00;99756.16;5056251;28;19960;-79
2022/03/02 03:35:16;;;;;;;;;;;;;;;6.50;100.00;99757.81;5057030;28;20375;-78
2022/03/02 03:37:44;;;;;;;;;;;;;;;6.46;100.00;99761.72;5057123;28;20015;-79
2022/03/02 03:40:12;;;;;;;;;;;;;;;6.56;100.00;99752.69;5057146;28;19925;-79
2022/03/02 03:42:39;;;;;;;;;;;;;;;6.37;100.00;99744.56;5056890;28;20016;-79
2022/03/02 03:45:07;;;;;;;;;;;;;;;6.37;100.00;99745.38;5055749;28;19932;-78
2022/03/02 03:47:34;;;;;;;;;;;;;;;6.60;100.00;99734.13;5055429;28;19925;-79
2022/03/02 03:50:02;;;;;;;;;;;;;;;6.39;100.00;99725.56;5022595;28;20307;-79
2022/03/02 03:52:29;;;;;;;;;;;;;;;6.30;100.00;99725.84;5038976;28;20487;-79
2022/03/02 03:54:56;;;;;;;;;;;;;;;6.26;100.00;99718.66;5039038;28;19932;-79
2022/03/02 03:57:23;;;;;;;;;;;;;;;6.23;100.00;99720.22;5055336;28;19960;-79
2022/03/02 03:59:50;;;;;;;;;;;;;;;6.23;100.00;99724.97;5039102;28;19969;-78
2022/03/02 04:02:17;;;;;;;;;;;;;;;6.17;100.00;99718.16;5055374;28;19964;-79
2022/03/02 04:04:45;;;;;;;;;;;;;;;6.22;100.00;99699.22;5069053;28;19925;-78
2022/03/02 04:07:11;;;;;;;;;;;;;;;6.49;100.00;99699.88;5058691;28;20372;-79
2022/03/02 04:09:39;;;;;;;;;;;;;;;6.53;100.00;99697.94;5076412;28;19924;-79
2022/03/02 04:12:06;;;;;;;;;;;;;;;6.39;100.00;99686.69;5074957;28;19928;-79
2022/03/02 04:14:38;;;;;;;;;;;;;;;6.50;100.00;99679.25;5074180;28;19924;-79
2022/03/02 04:17:05;;;;;;;;;;;;;;;6.69;100.00;99682.66;5075035;28;19993;-78
2022/03/02 04:19:32;;;;;;;;;;;;;;;6.45;100.00;99679.63;5076301;28;19974;-78
2022/03/02 04:21:59;;;;;;;;;;;;;;;6.62;100.00;99687.34;5074875;28;20310;-78
2022/03/02 04:24:26;;;;;;;;;;;;;;;6.41;100.00;99679.59;5062923;28;19928;-79
2022/03/02 04:26:53;;;;;;;;;;;;;;;6.35;100.00;99678.31;5055595;28;19924;-79
2022/03/02 04:29:20;;;;;;;;;;;;;;;6.47;100.00;99671.69;5073857;28;19932;-79
2022/03/02 04:31:47;;;;;;;;;;;;;;;6.69;100.00;99671.53;5074676;28;19925;-78
2022/03/02 04:34:14;;;;;;;;;;;;;;;6.44;100.00;99667.72;5074629;28;19981;-79
2022/03/02 04:36:41;;;;;;;;;;;;;;;6.62;100.00;99665.13;5075000;28;20027;-79
2022/03/02 04:39:08;;;;;;;;;;;;;;;6.77;100.00;99661.28;5075882;28;19931;-79
2022/03/02 04:41:35;;;;;;;;;;;;;;;6.76;100.00;99663.25;5070912;28;19928;-78
2022/03/02 04:44:03;;;;;;;;;;;;;;;6.71;100.00;99662.81;5054559;28;19932;-79
2022/03/02 04:46:30;;;;;;;;;;;;;;;6.70;100.00;99659.25;5054404;28;20373;-78
2022/03/02 04:48:57;;;;;;;;;;;;;;;6.87;100.00;99655.81;5055498;28;19932;-79
2022/03/02 04:51:24;;;;;;;;;;;;;;;6.68;100.00;99646.94;5038142;28;20014;-79
2022/03/02 04:53:51;;;;;;;;;;;;;;;6.67;100.00;99646.13;5055627;28;19925;-79
2022/03/02 04:56:18;;;;;;;;;;;;;;;6.71;100.00;99640.59;5054085;28;19960;-78
2022/03/02 04:58:45;;;;;;;;;;;;;;;6.76;100.00;99643.00;5037695;28;19932;-76
2022/03/02 05:01:12;;;;;;;;;;;;;;;6.87;100.00;99632.78;5054030;28;19928;-76
2022/03/02 05:03:39;;;;;;;;;;;;;;;6.79;100.00;99633.91;5055341;28;20361;-76
2022/03/02 05:06:06;;;;;;;;;;;;;;;6.88;100.00;99634.38;5055364;28;20335;-76
2022/03/02 05:08:33;;;;;;;;;;;;;;;6.73;100.00;99633.47;5054982;28;20019;-76
2022/03/02 05:11:00;;;;;;;;;;;;;;;6.95;100.00;99623.34;5055072;28;19931;-76
2022/03/02 05:13:27;;;;;;;;;;;;;;;7.00;100.00;99626.53;5053908;28;19952;-76
2022/03/02 05:15:54;;;;;;;;;;;;;;;6.98;100.00;99619.78;5053787;28;20009;-76
2022/03/02 05:18:22;;;;;;;;;;;;;;;6.91;100.00;99623.28;5053716;28;19960;-76
2022/03/02 05:20:49;;;;;;;;;;;;;;;6.93;100.00;99626.50;5054920;28;19975;-76
2022/03/02 05:23:16;;;;;;;;;;;;;;;6.90;100.00;99620.91;5020586;28;19935;-76
2022/03/02 05:25:43;;;;;;;;;;;;;;;6.87;100.00;99616.13;5020906;28;19932;-76
2022/03/02 05:28:10;;;;;;;;;;;;;;;6.93;100.00;99620.13;5052546;28;20016;-76
2022/03/02 05:30:37;;;;;;;;;;;;;;;6.87;100.00;99622.50;5066923;28;19925;-76
2022/03/02 05:33:04;;;;;;;;;;;;;;;7.07;100.00;99631.34;5037044;28;20291;-76
2022/03/02 05:35:31;;;;;;;;;;;;;;;6.92;100.00;99618.56;5047963;28;19977;-76
2022/03/02 05:37:58;;;;;;;;;;;;;;;6.88;100.00;99612.97;5074376;28;20007;-76
2022/03/02 05:40:25;;;;;;;;;;;;;;;6.85;100.00;99608.19;5056814;28;19947;-76
2022/03/02 05:42:53;;;;;;;;;;;;;;;6.91;100.00;99616.94;5074687;28;19932;-76
2022/03/02 05:45:21;;;;;;;;;;;;;;;6.67;100.00;99604.47;5106966;28;19947;-79
2022/03/02 05:47:48;;;;;;;;;;;;;;;6.74;100.00;99606.50;5044438;28;20304;-78
2022/03/02 05:50:15;;;;;;;;;;;;;;;7.04;100.00;99609.91;5053191;28;19951;-79
2022/03/02 05:52:42;;;;;;;;;;;;;;;7.03;100.00;99616.63;5054181;28;19974;-79
2022/03/02 05:55:09;;;;;;;;;;;;;;;6.77;100.00;99622.41;5053157;28;19928;-79
2022/03/02 05:57:36;;;;;;;;;;;;;;;6.81;100.00;99614.88;5052457;28;19929;-79
2022/03/02 06:00:05;;;;;;;;;;;;;;;6.89;100.00;99602.66;5052870;28;20295;-79
2022/03/02 06:02:32;;;;;;;;;;;;;;;6.75;100.00;99617.22;5054022;28;19976;-79
2022/03/02 06:04:59;;;;;;;;;;;;;;;6.85;100.00;99612.91;5053146;28;19925;-79
2022/03/02 06:07:26;;;;;;;;;;;;;;;6.89;100.00;99617.31;5052794;28;19925;-79
2022/03/02 06:09:53;;;;;;;;;;;;;;;6.87;100.00;99610.56;5036416;28;19929;-78
2022/03/02 06:12:21;;;;;;;;;;;;;;;6.83;100.00;99606.97;5054000;28;19964;-79
2022/03/02 06:14:48;;;;;;;;;;;;;;;6.61;100.00;99607.97;5036068;28;20272;-79
2022/03/02 06:17:15;;;;;;;;;;;;;;;6.75;100.00;99605.31;5036189;28;19924;-79
2022/03/02 06:19:42;;;;;;;;;;;;;;;6.82;100.00;99599.81;5053771;28;19978;-79
2022/03/02 06:22:10;;;;;;;;;;;;;;;6.89;100.00;99597.88;5036069;28;20296;-79
2022/03/02 06:24:37;;;;;;;;;;;;;;;6.74;100.00;99600.97;5068480;28;19934;-79
2022/03/02 06:27:04;;;;;;;;;;;;;;;7.03;100.00;99597.16;5072659;28;19931;-79
2022/03/02 06:29:31;;;;;;;;;;;;;;;6.76;100.00;99593.03;5072509;28;19929;-79
2022/03/02 06:31:59;;;;;;;;;;;;;;;6.85;100.00;99596.25;5072563;28;19931;-79
2022/03/02 06:34:26;;;;;;;;;;;;;;;6.89;100.00;99595.09;5088999;28;19955;-79
2022/03/02 06:36:53;;;;;;;;;;;;;;;6.65;100.00;99592.16;5071674;28;20346;-79
2022/03/02 06:39:22;;;;;;;;;;;;;;;6.81;100.00;99601.00;5055715;28;19928;-79
2022/03/02 06:42:11;;;;;;;;;;;;;;;6.73;100.00;99604.91;5071968;28;19935;-78
2022/03/02 06:44:59;;;;;;;;;;;;;;;6.85;100.00;99608.19;5072928;28;19924;-78
2022/03/02 06:47:34;;;;;;;;;;;;;;;6.82;100.00;99602.59;5072169;28;20272;-78
2022/03/02 06:50:01;;;;;;;;;;;;;;;6.97;100.00;99607.88;5106265;28;20406;-78
2022/03/02 06:52:33;;;;;;;;;;;;;;;6.72;100.00;99603.31;5070002;28;20074;-79
2022/03/02 06:55:01;;;;;;;;;;;;;;;6.71;100.00;99607.28;5052779;28;20015;-79
2022/03/02 06:57:29;;;;;;;;;;;;;;;6.80;100.00;99604.97;5052248;28;19925;-78
2022/03/02 07:00:06;;;;;;;;;;;;;;;6.86;100.00;99606.19;5036714;28;20384;-79
2022/03/02 07:02:37;;;;;;;;;;;;;;;7.01;100.00;99605.13;5072406;28;20253;-79
2022/03/02 07:05:05;;;;;;;;;;;;;;;7.00;100.00;99603.50;5072200;28;20307;-79
2022/03/02 07:07:34;;;;;;;;;;;;;;;7.02;100.00;99601.94;5073544;28;20305;-77
2022/03/02 07:10:01;;;;;;;;;;;;;;;7.05;100.00;99606.75;5073412;28;19928;-76
2022/03/02 07:12:28;;;;;;;;;;;;;;;7.17;100.00;99608.38;5071317;28;20387;-77
2022/03/02 07:14:55;;;;;;;;;;;;;;;7.15;100.00;99613.53;5055719;28;19924;-76
2022/03/02 07:17:22;;;;;;;;;;;;;;;6.93;100.00;99609.81;5066665;28;19964;-76
2022/03/02 07:19:50;;;;;;;;;;;;;;;6.95;100.00;99618.56;5051958;28;19967;-79
2022/03/02 07:22:18;;;;;;;;;;;;;;;7.05;100.00;99617.84;5051969;28;20031;-79
2022/03/02 07:24:52;;;;;;;;;;;;;;;7.03;100.00;99623.00;5035435;28;20020;-79
2022/03/02 07:27:21;;;;;;;;;;;;;;;6.79;100.00;99620.03;5052135;28;20016;-79
2022/03/02 07:29:48;;;;;;;;;;;;;;;7.15;100.00;99632.97;5051810;28;19924;-79
2022/03/02 07:32:29;;;;;;;;;;;;;;;7.33;100.00;99625.53;5052085;28;19947;-79
2022/03/02 07:34:58;;;;;;;;;;;;;;;7.15;100.00;99628.22;5035271;28;19929;-76
2022/03/02 07:37:26;;;;;;;;;;;;;;;7.08;100.00;99619.06;5029332;28;20019;-79
2022/03/02 07:39:53;;;;;;;;;;;;;;;7.15;100.00;99621.88;5069433;28;19926;-79
2022/03/02 07:42:21;;;;;;;;;;;;;;;7.22;100.00;99622.69;5052806;28;20315;-79
2022/03/02 07:44:50;;;;;;;;;;;;;;;7.23;100.00;99621.53;5051428;28;20007;-79
2022/03/02 07:47:18;;;;;;;;;;;;;;;7.04;100.00;99623.78;5035119;28;19928;-79
2022/03/02 07:49:46;;;;;;;;;;;;;;;6.94;100.00;99621.72;5053846;28;19925;-79
2022/03/02 07:52:14;;;;;;;;;;;;;;;7.13;100.00;99618.69;5056116;28;20340;-79
2022/03/02 07:54:42;;;;;;;;;;;;;;;6.90;100.00;99634.78;5053633;28;20400;-79
2022/03/02 07:57:10;;;;;;;;;;;;;;;6.90;100.00;99626.47;5094898;28;19932;-79
2022/03/02 07:59:39;;;;;;;;;;;;;;;6.84;100.00;99639.94;5075258;28;19975;-79
2022/03/02 08:02:08;;;;;;;;;;;;;;;6.78;100.00;99624.78;5075229;28;19948;-79
2022/03/02 08:04:36;;;;;;;;;;;;;;;6.82;100.00;99635.91;5060470;28;19925;-78
2022/03/02 08:07:03;;;;;;;;;;;;;;;6.88;100.00;99628.81;5055734;28;20043;-78
2022/03/02 08:09:31;;;;;;;;;;;;;;;6.74;100.00;99628.72;5056092;28;19928;-79
2022/03/02 08:11:59;;;;;;;;;;;;;;;6.75;100.00;99630.31;5054918;28;19951;-79
2022/03/02 08:14:28;;;;;;;;;;;;;;;6.70;100.00;99627.88;5038694;28;19994;-79
2022/03/02 08:16:55;;;;;;;;;;;;;;;6.77;100.00;99627.97;5056204;28;19925;-79
2022/03/02 08:19:22;;;;;;;;;;;;;;;6.75;100.00;99621.97;5071110;28;20392;-79
2022/03/02 08:21:59;;;;;;;;;;;;;;;6.96;100.00;99616.59;5076019;28;19968;-79
2022/03/02 08:24:27;;;;;;;;;;;;;;;6.91;100.00;99633.59;5074801;28;19967;-79
2022/03/02 08:26:56;;;;;;;;;;;;;;;6.91;100.00;99611.38;5074697;28;20261;-79
2022/03/02 08:29:26;;;;;;;;;;;;;;;6.67;100.00;99617.53;5108232;28;19967;-80
2022/03/02 08:31:57;;;;;;;;;;;;;;;6.79;100.00;99620.03;5075718;28;20277;-80
2022/03/02 08:34:25;;;;;;;;;;;;;;;7.07;100.00;99609.91;5074748;28;19925;-80
2022/03/02 08:36:52;;;;;;;;;;;;;;;7.10;100.00;99619.47;5074583;28;20427;-80
2022/03/02 08:39:20;;;;;;;;;;;;;;;6.93;100.00;99618.16;5074444;28;19964;-80
2022/03/02 08:41:48;;;;;;;;;;;;;;;6.96;100.00;99608.25;5074577;28;19929;-80
2022/03/02 08:44:15;;;;;;;;;;;;;;;6.75;100.00;99610.88;5058373;28;19930;-77
2022/03/02 08:46:46;;;;;;;;;;;;;;;6.87;100.00;99613.34;5075459;28;19924;-75
2022/03/02 08:49:18;;;;;;;;;;;;;;;7.02;100.00;99612.25;5074492;28;19924;-76
2022/03/02 08:51:45;;;;;;;;;;;;;;;6.96;100.00;99619.38;5056318;28;20288;-76
2022/03/02 08:54:13;;;;;;;;;;;;;;;6.98;100.00;99623.34;5054553;28;19931;-75
2022/03/02 08:56:41;;;;;;;;;;;;;;;6.96;100.00;99619.38;5068933;28;20019;-74
2022/03/02 08:59:11;;;;;;;;;;;;;;;7.13;100.00;99607.56;5046834;28;19933;-76
2022/03/02 09:01:41;;;;;;;;;;;;;;;7.08;100.00;99610.72;5087343;28;19936;-75
2022/03/02 09:04:13;;;;;;;;;;;;;;;7.02;100.00;99612.25;5046805;28;20006;-78
2022/03/02 09:06:40;;;;;;;;;;;;;;;6.98;100.00;99601.13;5033663;28;20319;-77
2022/03/02 09:09:08;;;;;;;;;;;;;;;7.29;100.00;99594.97;5049754;28;20490;-77
2022/03/02 09:11:37;;;;;;;;;;;;;;;7.19;100.00;99600.47;5050656;28;20300;-78
2022/03/02 09:14:06;;;;;;;;;;;;;;;7.19;100.00;99594.91;5050809;28;20387;-78
2022/03/02 09:16:34;;;;;;;;;;;;;;;7.18;100.00;99590.50;5050979;28;20311;-74
2022/03/02 09:19:01;;;;;;;;;;;;;;;7.31;100.00;99589.03;5054802;28;19986;-75
2022/03/02 09:21:29;;;;;;;;;;;;;;;7.13;100.00;99591.69;5047976;28;19925;-77
2022/03/02 09:23:57;;;;;;;;;;;;;;;7.21;100.00;99587.75;5029316;28;20388;-77
2022/03/02 09:26:26;;;;;;;;;;;;;;;7.07;100.00;99589.69;5042602;28;20390;-77
2022/03/02 09:28:53;;;;;;;;;;;;;;;7.00;100.00;99586.84;5033327;28;19931;-77
2022/03/02 09:31:22;;;;;;;;;;;;;;;7.08;100.00;99596.81;5060038;28;19935;-77
2022/03/02 09:33:55;;;;;;;;;;;;;;;7.14;100.00;99592.47;5070515;28;20291;-77
2022/03/02 09:36:23;;;;;;;;;;;;;;;7.03;100.00;99589.66;5055219;28;19924;-77
2022/03/02 09:38:52;;;;;;;;;;;;;;;7.26;100.00;99590.19;5050853;28;20051;-79
2022/03/02 09:41:27;;;;;;;;;;;;;;;7.14;100.00;99589.72;5055024;28;19932;-77
2022/03/02 09:43:55;;;;;;;;;;;;;;;7.08;100.00;99594.03;5070512;28;19928;-76
2022/03/02 09:46:28;;;;;;;;;;;;;;;7.06;100.00;99590.84;5068858;28;19974;-75
2022/03/02 09:48:57;;;;;;;;;;;;;;;7.31;100.00;99591.78;5063943;28;20005;-76
2022/03/02 09:51:26;;;;;;;;;;;;;;;7.18;100.00;99588.53;5051099;28;19925;-75
2022/03/02 09:53:53;;;;;;;;;;;;;;;7.23;100.00;99590.16;5050459;28;20390;-75
2022/03/02 09:56:23;;;;;;;;;;;;;;;7.11;100.00;99593.25;5050839;28;19924;-75
2022/03/02 09:58:51;;;;;;;;;;;;;;;7.21;100.00;99575.84;5051112;28;19932;-75
2022/03/02 10:01:23;;;;;;;;;;;;;;;7.05;100.00;99597.59;5050434;28;19928;-77
2022/03/02 10:03:52;;;;;;;;;;;;;;;7.06;100.00;99579.72;5050582;28;19924;-75
2022/03/02 10:06:22;;;;;;;;;;;;;;;7.23;100.00;99585.41;5049425;28;19967;-75
2022/03/02 10:08:51;;;;;;;;;;;;;;;7.35;100.00;99581.47;5049600;28;19932;-75
2022/03/02 10:11:20;;;;;;;;;;;;;;;7.34;100.00;99582.69;5052897;28;19925;-75
2022/03/02 10:13:47;;;;;;;;;;;;;;;7.27;100.00;99580.66;5048490;28;19990;-75
2022/03/02 10:16:20;;;;;;;;;;;;;;;7.42;100.00;99575.97;5059488;28;19970;-74
2022/03/02 10:18:52;;;;;;;;;;;;;;;7.37;100.00;99570.78;5052462;28;19932;-74
2022/03/02 10:21:25;;;;;;;;;;;;;;;7.36;100.00;99577.53;5048623;28;19929;-75
2022/03/02 10:24:01;;;;;;;;;;;;;;;7.32;100.00;99574.72;5096035;28;20014;-74
2022/03/02 10:26:31;;;;;;;;;;;;;;;7.28;100.00;99562.78;5066321;28;19928;-75
2022/03/02 10:29:00;;;;;;;;;;;;;;;7.62;100.00;99565.31;5064979;28;19925;-75
2022/03/02 10:31:41;;;;;;;;;;;;;;;7.30;100.00;99567.94;5046569;28;19931;-79
2022/03/02 10:34:29;;;;;;;;;;;;;;;7.23;100.00;99567.91;5082646;28;19968;-79
2022/03/02 10:37:03;;;;;;;;;;;;;;;7.50;100.00;99560.91;5049990;28;19925;-76
2022/03/02 10:39:49;;;;;;;;;;;;;;;7.54;100.00;99561.72;5050444;28;19956;-78
2022/03/02 10:42:20;;;;;;;;;;;;;;;7.58;100.00;99556.16;5048424;28;19924;-78
2022/03/02 10:44:50;;;;;;;;;;;;;;;7.41;100.00;99552.13;5050299;28;19924;-79
2022/03/02 10:47:19;;;;;;;;;;;;;;;7.68;100.00;99547.84;5049341;28;19967;-77
2022/03/02 10:49:50;;;;;;;;;;;;;;;7.43;100.00;99554.50;5049426;28;19936;-76
2022/03/02 10:52:20;;;;;;;;;;;;;;;7.56;100.00;99548.22;5057146;28;20015;-76
2022/03/02 10:54:49;;;;;;;;;;;;;;;7.80;100.00;99541.91;5052361;28;19979;-77
2022/03/02 10:57:18;;;;;;;;;;;;;;;7.55;100.00;99541.06;5069988;28;19982;-77
2022/03/02 10:59:45;;;;;;;;;;;;;;;7.53;100.00;99540.66;5069604;28;19932;-77
2022/03/02 11:02:12;;;;;;;;;;;;;;;7.58;100.00;99534.72;5067964;28;19970;-75
2022/03/02 11:04:43;;;;;;;;;;;;;;;7.70;100.00;99526.00;5049901;28;20046;-76
2022/03/02 11:07:11;;;;;;;;;;;;;;;7.73;100.00;99522.44;5049293;28;19925;-75
2022/03/02 11:09:48;;;;;;;;;;;;;;;7.70;100.00;99531.56;5049446;28;20379;-74
2022/03/02 11:12:20;;;;;;;;;;;;;;;7.29;100.00;99538.56;5047987;28;19925;-76
2022/03/02 11:14:59;;;;;;;;;;;;;;;7.51;100.00;99540.25;5049788;28;20280;-76
2022/03/02 11:17:26;;;;;;;;;;;;;;;7.42;100.00;99531.50;5050004;28;19929;-76
2022/03/02 11:19:56;;;;;;;;;;;;;;;7.61;100.00;99527.56;5049591;28;19929;-75
2022/03/02 11:22:26;;;;;;;;;;;;;;;7.86;100.00;99525.66;5048179;28;19959;-76
2022/03/02 11:24:55;;;;;;;;;;;;;;;7.44;100.00;99529.09;5053605;28;19925;-75
2022/03/02 11:27:38;;;;;;;;;;;;;;;7.43;100.00;99530.28;5053703;28;19924;-75
2022/03/02 11:30:08;;;;;;;;;;;;;;;7.18;100.00;99523.81;5052554;28;19963;-76
2022/03/02 11:32:37;;;;;;;;;;;;;;;7.47;100.00;99528.31;5052138;28;19925;-75
2022/03/02 11:35:04;;;;;;;;;;;;;;;7.35;100.00;99525.88;5053104;28;20455;-76
2022/03/02 11:37:33;;;;;;;;;;;;;;;7.21;100.00;99537.75;5053579;28;19932;-76
2022/03/02 11:40:01;;;;;;;;;;;;;;;7.45;100.00;99519.59;5053706;28;19924;-75
2022/03/02 11:46:34;;;;;;;;;;;;;;;7.37;100.00;99523.53;5065092;28;20516;-78
2022/03/02 11:49:04;;;;;;;;;;;;;;;7.61;100.00;99522.81;5051307;28;19929;-78
2022/03/02 11:51:31;;;;;;;;;;;;;;;7.16;100.00;99517.88;5032390;28;19929;-79
2022/03/02 11:53:59;;;;;;;;;;;;;;;7.06;100.00;99518.59;5049059;28;20380;-79
2022/03/02 11:56:28;;;;;;;;;;;;;;;7.18;100.00;99509.91;5051684;28;19925;-78
2022/03/02 11:59:00;;;;;;;;;;;;;;;7.26;100.00;99506.00;5051611;28;19956;-78
2022/03/02 12:01:43;;;;;;;;;;;;;;;7.14;100.00;99501.59;5052874;28;19925;-78
2022/03/02 12:04:25;;;;;;;;;;;;;;;7.22;100.00;99499.63;5053061;28;19931;-79
2022/03/02 12:06:52;;;;;;;;;;;;;;;7.33;100.00;99501.25;5052842;28;20019;-78
2022/03/02 12:09:29;;;;;;;;;;;;;;;7.04;100.00;99493.97;5034483;28;19959;-77
2022/03/02 12:12:18;;;;;;;;;;;;;;;7.21;100.00;99487.72;5051964;28;19928;-77
2022/03/02 12:14:47;;;;;;;;;;;;;;;7.35;100.00;99490.56;5052255;28;19947;-77
2022/03/02 12:17:16;;;;;;;;;;;;;;;7.41;100.00;99485.41;5050233;28;20459;-77
2022/03/02 12:19:48;;;;;;;;;;;;;;;7.41;100.00;99484.63;5052635;28;19929;-77
2022/03/02 12:22:17;;;;;;;;;;;;;;;7.28;100.00;99484.94;5051604;28;20419;-77
2022/03/02 12:24:44;;;;;;;;;;;;;;;7.17;100.00;99474.97;5052083;28;19929;-77
2022/03/02 12:27:12;;;;;;;;;;;;;;;7.22;100.00;99474.63;5052014;28;19935;-77
2022/03/02 12:29:40;;;;;;;;;;;;;;;7.65;100.00;99473.53;5051028;28;20374;-77
2022/03/02 12:32:08;;;;;;;;;;;;;;;7.25;100.00;99471.84;5050741;28;19925;-77
2022/03/02 12:34:37;;;;;;;;;;;;;;;6.99;100.00;99474.13;5052157;28;19924;-77
2022/03/02 12:37:07;;;;;;;;;;;;;;;7.01;100.00;99464.19;5055206;28;19971;-77
2022/03/02 12:39:34;;;;;;;;;;;;;;;7.16;100.00;99463.06;5054341;28;20447;-77
2022/03/02 12:42:07;;;;;;;;;;;;;;;7.26;100.00;99472.63;5055604;28;20373;-77
2022/03/02 12:44:35;;;;;;;;;;;;;;;7.13;100.00;99461.06;5055149;28;20011;-77
2022/03/02 12:47:04;;;;;;;;;;;;;;;7.11;100.00;99449.56;5055462;28;19932;-77
2022/03/02 12:49:33;;;;;;;;;;;;;;;7.12;100.00;99455.91;5055334;28;19928;-77
2022/03/02 12:52:01;;;;;;;;;;;;;;;7.23;100.00;99453.97;5055471;28;19932;-77
2022/03/02 12:54:31;;;;;;;;;;;;;;;7.09;100.00;99459.47;5054079;28;19971;-77
2022/03/02 12:56:59;;;;;;;;;;;;;;;7.23;100.00;99445.63;5054425;28;19967;-77